createdAt,value
2023-03-24T00:03:01.842Z,45.11
2023-03-24T00:06:14.042Z,45.82
2023-03-24T00:09:21.402Z,45.69
2023-03-24T00:12:27.266Z,45.39
2023-03-24T00:15:34.750Z,45.44
2023-03-24T00:18:42.652Z,46.00
2023-03-24T00:21:56.380Z,45.70
2023-03-24T00:25:04.801Z,46.45
2023-03-24T00:28:11.593Z,46.02
2023-03-24T00:31:19.667Z,46.52
2023-03-24T00:34:27.508Z,46.44
2023-03-24T00:37:37.954Z,46.77
2023-03-24T00:40:50.563Z,46.72
2023-03-24T00:44:00.738Z,46.46
2023-03-24T00:47:07.769Z,46.75
2023-03-24T00:50:18.992Z,46.04
2023-03-24T00:53:30.008Z,46.23
2023-03-24T00:56:41.153Z,46.10
2023-03-24T00:59:49.317Z,46.55
2023-03-24T01:03:00.120Z,46.12
2023-03-24T01:06:07.931Z,46.69
2023-03-24T01:09:16.881Z,46.66
2023-03-24T01:12:23.780Z,46.48
2023-03-24T01:15:33.854Z,47.06
2023-03-24T01:18:42.640Z,46.78
2023-03-24T01:21:48.836Z,46.76
2023-03-24T01:25:01.233Z,46.77
2023-03-24T01:28:07.950Z,46.30
2023-03-24T01:31:15.369Z,46.92
2023-03-24T01:34:21.743Z,46.45
2023-03-24T01:37:28.785Z,46.83
2023-03-24T01:40:41.465Z,46.52
2023-03-24T01:43:48.408Z,46.53
2023-03-24T01:46:55.132Z,45.98
2023-03-24T01:50:06.192Z,46.36
2023-03-24T01:53:13.183Z,46.05
2023-03-24T01:56:24.383Z,45.47
2023-03-24T01:59:35.556Z,45.64
2023-03-24T02:03:26.939Z,46.23
2023-03-24T02:06:41.619Z,45.97
2023-03-24T02:09:50.120Z,46.12
2023-03-24T02:12:59.051Z,46.13
2023-03-24T02:17:01.171Z,45.61
2023-03-24T02:21:32.473Z,46.32
2023-03-24T02:25:19.947Z,46.13
2023-03-24T02:28:50.025Z,46.06
2023-03-24T02:32:31.814Z,45.73
2023-03-24T02:36:38.189Z,45.87
2023-03-24T02:40:44.211Z,46.34
2023-03-24T02:44:06.993Z,45.66
2023-03-24T02:47:29.481Z,45.91
2023-03-24T02:50:49.576Z,46.02
2023-03-24T02:54:10.738Z,46.17
2023-03-24T02:57:31.411Z,46.28
2023-03-24T03:01:03.779Z,46.30
2023-03-24T03:04:37.601Z,46.66
2023-03-24T03:07:48.209Z,46.91
2023-03-24T03:11:00.657Z,47.54
2023-03-24T03:14:19.204Z,47.61
2023-03-24T03:17:36.236Z,48.24
2023-03-24T03:20:53.418Z,48.28
2023-03-24T03:24:07.398Z,48.74
2023-03-24T03:27:23.508Z,49.29
2023-03-24T03:30:40.912Z,49.78
2023-03-24T03:33:57.279Z,50.02
2023-03-24T03:37:13.253Z,49.70
2023-03-24T03:40:28.565Z,50.41
2023-03-24T03:43:42.304Z,50.72
2023-03-24T03:46:54.256Z,51.13
2023-03-24T03:50:12.935Z,51.53
2023-03-24T03:53:30.468Z,51.73
2023-03-24T03:56:41.226Z,52.16
2023-03-24T03:59:59.174Z,52.42
2023-03-24T04:03:42.414Z,52.74
2023-03-24T04:07:11.070Z,53.21
2023-03-24T04:10:33.968Z,53.33
2023-03-24T04:13:57.736Z,53.80
2023-03-24T04:18:09.332Z,54.06
2023-03-24T04:22:03.386Z,53.80
2023-03-24T04:25:24.815Z,54.48
2023-03-24T04:28:48.236Z,54.17
2023-03-24T04:32:05.692Z,54.27
2023-03-24T04:35:26.938Z,54.07
2023-03-24T04:39:30.703Z,54.90
2023-03-24T04:42:49.176Z,54.35
2023-03-24T04:45:59.008Z,54.19
2023-03-24T04:49:32.961Z,54.02
2023-03-24T04:52:38.991Z,54.63
2023-03-24T04:56:22.535Z,54.92
2023-03-24T04:59:39.242Z,55.17
2023-03-24T05:02:46.930Z,55.16
2023-03-24T05:05:59.702Z,55.62
2023-03-24T05:09:07.122Z,55.63
2023-03-24T05:12:16.079Z,55.89
2023-03-24T05:15:43.519Z,56.16
2023-03-24T05:19:02.245Z,56.15
2023-03-24T05:22:11.500Z,56.33
2023-03-24T05:25:17.631Z,56.88
2023-03-24T05:28:27.998Z,57.19
2023-03-24T05:31:34.395Z,57.57
2023-03-24T05:35:31.687Z,58.60
2023-03-24T05:38:37.714Z,57.86
2023-03-24T05:41:44.640Z,58.40
2023-03-24T05:44:53.709Z,59.31
2023-03-24T05:48:06.218Z,59.49
2023-03-24T05:51:56.315Z,59.90
2023-03-24T05:55:03.801Z,59.68
2023-03-24T05:58:10.407Z,60.28
2023-03-24T06:01:29.186Z,60.22
2023-03-24T06:04:53.390Z,60.11
2023-03-24T06:08:04.404Z,60.45
2023-03-24T06:11:13.960Z,59.88
2023-03-24T06:14:30.311Z,59.87
2023-03-24T06:17:50.622Z,60.32
2023-03-24T06:21:12.901Z,60.96
2023-03-24T06:24:21.890Z,60.63
2023-03-24T06:27:30.923Z,60.17
2023-03-24T06:30:39.228Z,60.34
2023-03-24T06:33:49.217Z,60.41
2023-03-24T06:36:56.016Z,60.53
2023-03-24T06:40:03.342Z,60.86
2023-03-24T06:43:11.632Z,60.17
2023-03-24T06:46:21.364Z,60.23
2023-03-24T06:49:30.731Z,59.84
2023-03-24T06:52:37.766Z,59.30
2023-03-24T06:55:43.780Z,59.88
2023-03-24T06:58:52.596Z,59.17
2023-03-24T07:02:08.065Z,59.21
2023-03-24T07:05:22.220Z,58.95
2023-03-24T07:08:37.577Z,58.81
2023-03-24T07:11:46.068Z,58.77
2023-03-24T07:14:52.606Z,58.06
2023-03-24T07:17:59.340Z,57.62
2023-03-24T07:21:25.128Z,57.25
2023-03-24T07:24:32.024Z,57.32
2023-03-24T07:27:51.152Z,57.00
2023-03-24T07:30:57.874Z,56.75
2023-03-24T07:34:03.790Z,56.83
2023-03-24T07:37:13.419Z,56.00
2023-03-24T07:40:19.472Z,56.21
2023-03-24T07:43:26.510Z,56.43
2023-03-24T07:46:51.524Z,56.28
2023-03-24T07:49:58.308Z,55.63
2023-03-24T07:53:10.508Z,56.17
2023-03-24T07:56:17.378Z,55.36
2023-03-24T07:59:31.457Z,55.72
2023-03-24T08:02:45.848Z,55.03
2023-03-24T08:06:39.025Z,55.32
2023-03-24T08:09:48.341Z,54.16
2023-03-24T08:12:55.079Z,54.17
2023-03-24T08:16:01.648Z,53.22
2023-03-24T08:19:07.918Z,53.08
2023-03-24T08:22:15.164Z,53.02
2023-03-24T08:25:27.623Z,52.16
2023-03-24T08:28:34.296Z,52.49
2023-03-24T08:31:41.360Z,51.72
2023-03-24T08:34:48.116Z,51.51
2023-03-24T08:37:53.890Z,51.08
2023-03-24T08:41:07.075Z,50.43
2023-03-24T08:44:16.418Z,50.21
2023-03-24T08:47:23.021Z,49.02
2023-03-24T08:50:33.029Z,49.16
2023-03-24T08:53:39.957Z,48.21
2023-03-24T08:56:48.382Z,48.60
2023-03-24T08:59:54.823Z,48.22
2023-03-24T09:03:01.401Z,47.13
2023-03-24T09:06:08.466Z,47.96
2023-03-24T09:09:14.140Z,47.42
2023-03-24T09:12:23.498Z,47.48
2023-03-24T09:15:29.358Z,46.14
2023-03-24T09:18:35.960Z,46.88
2023-03-24T09:21:43.091Z,47.37
2023-03-24T09:24:49.482Z,46.45
2023-03-24T09:28:24.976Z,46.40
2023-03-24T09:31:31.723Z,46.39
2023-03-24T09:34:38.594Z,45.93
2023-03-24T09:37:46.959Z,45.77
2023-03-24T09:41:01.143Z,45.09
2023-03-24T09:44:29.139Z,44.35
2023-03-24T09:47:42.356Z,44.50
2023-03-24T09:50:59.214Z,43.69
2023-03-24T09:54:22.623Z,43.68
2023-03-24T09:57:37.549Z,42.35
2023-03-24T10:00:49.183Z,42.35
2023-03-24T10:04:03.309Z,42.47
2023-03-24T10:07:25.535Z,41.46
2023-03-24T10:10:51.692Z,41.35
2023-03-24T10:14:25.615Z,41.58
2023-03-24T10:17:51.878Z,41.46
2023-03-24T10:21:09.815Z,41.62
2023-03-24T10:24:31.038Z,40.45
2023-03-24T10:27:45.950Z,41.31
2023-03-24T10:30:59.529Z,40.38
2023-03-24T10:34:12.748Z,40.20
2023-03-24T10:37:19.489Z,40.45
2023-03-24T10:40:36.133Z,39.72
2023-03-24T10:43:43.869Z,39.18
2023-03-24T10:46:54.541Z,38.48
2023-03-24T10:50:12.056Z,38.48
2023-03-24T10:53:24.616Z,39.31
2023-03-24T10:56:44.371Z,39.77
2023-03-24T10:59:59.966Z,38.79
2023-03-24T11:03:15.034Z,37.30
2023-03-24T11:06:25.330Z,39.45
2023-03-24T11:09:33.013Z,38.90
2023-03-24T11:12:42.088Z,37.69
2023-03-24T11:16:12.284Z,37.34
2023-03-24T11:19:24.194Z,38.43
2023-03-24T11:22:33.898Z,36.97
2023-03-24T11:25:45.178Z,37.85
2023-03-24T11:28:57.132Z,37.49
2023-03-24T11:32:08.175Z,37.72
2023-03-24T11:35:23.277Z,37.12
2023-03-24T11:38:38.815Z,38.19
2023-03-24T11:41:54.017Z,37.43
2023-03-24T11:44:59.623Z,37.30
2023-03-24T11:48:21.317Z,37.19
2023-03-24T11:51:38.545Z,37.36
2023-03-24T11:54:47.893Z,37.40
2023-03-24T11:58:05.162Z,38.46
2023-03-24T12:01:28.867Z,37.81
2023-03-24T12:05:00.014Z,38.06
2023-03-24T12:08:43.554Z,37.18
2023-03-24T12:12:28.029Z,37.06
2023-03-24T12:15:58.190Z,37.40
2023-03-24T12:20:06.725Z,37.35
2023-03-24T12:23:25.444Z,37.15
2023-03-24T12:26:33.655Z,38.01
2023-03-24T12:30:05.777Z,36.49
2023-03-24T12:33:41.469Z,37.55
2023-03-24T12:37:02.142Z,37.73
2023-03-24T12:40:49.372Z,38.32
2023-03-24T12:44:39.378Z,38.77
2023-03-24T12:48:17.613Z,38.52
2023-03-24T12:51:43.584Z,38.19
2023-03-24T12:55:06.796Z,38.53
2023-03-24T12:58:26.186Z,38.06
2023-03-24T13:01:39.775Z,37.16
2023-03-24T13:04:55.976Z,37.98
2023-03-24T13:08:08.561Z,38.31
2023-03-24T13:11:32.304Z,37.64
2023-03-24T13:15:03.330Z,38.34
2023-03-24T13:18:31.415Z,38.61
2023-03-24T13:21:40.372Z,38.20
2023-03-24T13:24:49.488Z,37.64
2023-03-24T13:28:04.737Z,38.77
2023-03-24T13:31:15.895Z,38.08
2023-03-24T13:34:33.825Z,38.64
2023-03-24T13:37:50.496Z,38.00
2023-03-24T13:40:59.914Z,38.89
2023-03-24T13:44:18.971Z,38.77
2023-03-24T13:47:25.041Z,38.46
2023-03-24T13:50:34.622Z,39.19
2023-03-24T13:53:54.262Z,38.66
2023-03-24T13:57:10.232Z,39.04
2023-03-24T14:00:25.835Z,38.88
2023-03-24T14:03:37.798Z,38.46
2023-03-24T14:06:50.832Z,38.95
2023-03-24T14:10:14.793Z,39.07
2023-03-24T14:13:36.197Z,39.65
2023-03-24T14:16:55.149Z,39.92
2023-03-24T14:20:28.852Z,40.66
2023-03-24T14:23:41.882Z,39.32
2023-03-24T14:26:51.118Z,39.80
2023-03-24T14:29:57.863Z,38.71
2023-03-24T14:33:05.735Z,39.34
2023-03-24T14:36:17.490Z,39.86
2023-03-24T14:39:39.498Z,39.69
2023-03-24T14:43:25.436Z,38.70
2023-03-24T14:46:48.275Z,38.47
2023-03-24T14:49:58.618Z,38.52
2023-03-24T14:53:07.573Z,36.75
2023-03-24T14:56:20.670Z,36.65
2023-03-24T14:59:44.794Z,36.14
2023-03-24T15:02:55.815Z,36.10
2023-03-24T15:06:16.166Z,37.44
2023-03-24T15:09:22.877Z,36.60
2023-03-24T15:12:31.714Z,37.06
2023-03-24T15:15:49.896Z,37.66
2023-03-24T15:19:04.849Z,36.85
2023-03-24T15:22:18.076Z,37.30
2023-03-24T15:25:28.563Z,37.20
2023-03-24T15:28:36.557Z,37.76
2023-03-24T15:31:45.655Z,37.79
2023-03-24T15:34:57.063Z,38.03
2023-03-24T15:38:04.419Z,38.38
2023-03-24T15:41:17.425Z,40.83
2023-03-24T15:44:28.172Z,42.34
2023-03-24T15:47:44.507Z,42.64
2023-03-24T15:51:01.959Z,43.99
2023-03-24T15:54:24.552Z,44.97
2023-03-24T15:57:31.020Z,45.58
2023-03-24T16:00:46.074Z,46.62
2023-03-24T16:03:55.056Z,47.14
2023-03-24T16:07:01.885Z,48.38
2023-03-24T16:10:29.733Z,49.33
2023-03-24T16:13:39.812Z,49.17
2023-03-24T16:16:47.081Z,50.12
2023-03-24T16:19:56.895Z,50.20
2023-03-24T16:23:05.296Z,50.88
2023-03-24T16:26:17.533Z,51.25
2023-03-24T16:29:26.806Z,52.33
2023-03-24T16:32:33.570Z,53.42
2023-03-24T16:35:42.651Z,53.76
2023-03-24T16:38:49.709Z,54.72
2023-03-24T16:41:56.332Z,55.04
2023-03-24T16:45:02.955Z,56.04
2023-03-24T16:48:09.277Z,55.93
2023-03-24T16:51:22.928Z,56.70
2023-03-24T16:54:29.014Z,57.57
2023-03-24T16:57:37.442Z,56.68
2023-03-24T17:00:44.112Z,57.10
2023-03-24T17:03:50.756Z,57.30
2023-03-24T17:06:59.377Z,56.87
2023-03-24T17:10:06.065Z,57.48
2023-03-24T17:13:12.509Z,57.55
2023-03-24T17:16:20.022Z,57.87
2023-03-24T17:19:27.564Z,58.20
2023-03-24T17:22:41.307Z,58.58
2023-03-24T17:25:50.059Z,58.50
2023-03-24T17:28:59.443Z,58.55
2023-03-24T17:32:05.757Z,58.44
2023-03-24T17:35:17.618Z,57.60
2023-03-24T17:38:26.635Z,58.58
2023-03-24T17:41:33.463Z,58.95
2023-03-24T17:44:39.947Z,58.66
2023-03-24T17:47:47.800Z,58.71
2023-03-24T17:50:54.164Z,58.61
2023-03-24T17:54:04.764Z,58.62
2023-03-24T17:57:10.895Z,58.67
2023-03-24T18:00:20.892Z,58.13
2023-03-24T18:03:26.793Z,58.20
2023-03-24T18:06:34.107Z,58.20
2023-03-24T18:09:43.022Z,57.92
2023-03-24T18:12:49.603Z,57.76
2023-03-24T18:15:55.383Z,57.56
2023-03-24T18:19:02.768Z,57.41
2023-03-24T18:22:08.746Z,57.90
2023-03-24T18:25:18.221Z,57.57
2023-03-24T18:28:24.149Z,57.75
2023-03-24T18:31:33.461Z,57.35
2023-03-24T18:34:45.016Z,57.43
2023-03-24T18:37:51.695Z,57.36
2023-03-24T18:41:06.429Z,57.49
2023-03-24T18:44:17.118Z,57.48
2023-03-24T18:47:24.902Z,57.57
2023-03-24T18:50:32.659Z,57.95
2023-03-24T18:53:38.691Z,57.91
2023-03-24T18:56:48.454Z,58.10
2023-03-24T18:59:54.184Z,57.51
2023-03-24T19:03:01.211Z,57.79
2023-03-24T19:06:08.677Z,58.03
2023-03-24T19:09:20.568Z,58.10
2023-03-24T19:12:29.309Z,57.70
2023-03-24T19:15:36.740Z,57.99
2023-03-24T19:18:42.907Z,58.42
2023-03-24T19:21:50.663Z,58.33
2023-03-24T19:24:56.481Z,58.55
2023-03-24T19:28:06.097Z,58.21
2023-03-24T19:31:18.147Z,58.46
2023-03-24T19:34:24.848Z,59.17
2023-03-24T19:37:32.197Z,58.71
2023-03-24T19:40:38.743Z,58.54
2023-03-24T19:43:47.270Z,58.49
2023-03-24T19:46:53.882Z,59.07
2023-03-24T19:50:00.024Z,58.96
2023-03-24T19:53:06.958Z,59.21
2023-03-24T19:56:13.053Z,59.15
2023-03-24T19:59:22.571Z,59.29
2023-03-24T20:02:28.880Z,58.84
2023-03-24T20:05:36.434Z,59.27
2023-03-24T20:08:42.832Z,59.07
2023-03-24T20:11:49.640Z,59.16
2023-03-24T20:14:58.962Z,59.19
2023-03-24T20:18:05.950Z,58.91
2023-03-24T20:21:12.506Z,59.22
2023-03-24T20:24:19.316Z,59.43
2023-03-24T20:27:25.448Z,59.25
2023-03-24T20:30:34.907Z,59.28
2023-03-24T20:33:40.891Z,59.12
2023-03-24T20:36:47.540Z,59.44
2023-03-24T20:39:53.533Z,59.38
2023-03-24T20:43:00.465Z,59.44
2023-03-24T20:46:12.305Z,59.44
2023-03-24T20:49:19.102Z,59.46
2023-03-24T20:52:24.982Z,59.77
2023-03-24T20:55:34.220Z,59.55
2023-03-24T20:58:41.545Z,59.87
2023-03-24T21:01:51.765Z,59.57
2023-03-24T21:04:57.463Z,59.37
2023-03-24T21:08:04.020Z,59.13
2023-03-24T21:11:10.303Z,59.50
2023-03-24T21:14:17.111Z,59.60
2023-03-24T21:17:32.903Z,59.20
2023-03-24T21:20:40.277Z,59.44
2023-03-24T21:23:47.095Z,59.84
2023-03-24T21:26:57.371Z,59.68
2023-03-24T21:30:03.062Z,60.18
2023-03-24T21:33:12.905Z,59.79
2023-03-24T21:36:19.366Z,60.63
2023-03-24T21:39:26.699Z,59.81
2023-03-24T21:42:35.110Z,59.66
2023-03-24T21:45:46.687Z,59.91
2023-03-24T21:49:00.299Z,59.85
2023-03-24T21:52:08.271Z,59.38
2023-03-24T21:55:15.023Z,59.60
2023-03-24T21:58:22.698Z,59.49
2023-03-24T22:01:28.872Z,59.66
2023-03-24T22:04:38.616Z,59.53
2023-03-24T22:07:45.060Z,59.67
2023-03-24T22:10:54.586Z,59.42
2023-03-24T22:14:00.471Z,59.67
2023-03-24T22:17:08.360Z,60.01
2023-03-24T22:20:17.947Z,59.76
2023-03-24T22:23:24.735Z,59.83
2023-03-24T22:26:31.506Z,59.65
2023-03-24T22:29:38.242Z,59.54
2023-03-24T22:32:44.821Z,59.65
2023-03-24T22:35:59.064Z,60.05
2023-03-24T22:39:04.932Z,59.84
2023-03-24T22:42:13.077Z,59.69
2023-03-24T22:45:19.644Z,60.22
2023-03-24T22:48:27.533Z,60.41
2023-03-24T22:51:36.352Z,60.57
2023-03-24T22:54:45.433Z,60.68
2023-03-24T22:57:51.114Z,60.33
2023-03-24T23:01:02.746Z,60.94
2023-03-24T23:04:08.878Z,61.14
2023-03-24T23:07:18.552Z,60.77
2023-03-24T23:10:24.774Z,61.65
2023-03-24T23:13:35.972Z,61.58
2023-03-24T23:16:43.551Z,61.84
2023-03-24T23:19:50.343Z,61.97
2023-03-24T23:22:59.278Z,62.28
2023-03-24T23:26:07.931Z,62.79
2023-03-24T23:29:14.274Z,62.73
2023-03-24T23:32:21.201Z,62.77
2023-03-24T23:35:27.076Z,62.52
2023-03-24T23:38:36.974Z,62.04
2023-03-24T23:41:43.076Z,61.61
2023-03-24T23:44:50.364Z,62.12
2023-03-24T23:47:57.666Z,62.74
2023-03-24T23:51:09.103Z,61.78
2023-03-24T23:54:17.836Z,62.23
2023-03-24T23:57:24.619Z,62.45
